createdAt,value
2022-11-29T18:29:43.186Z,45.37
2022-11-29T18:32:09.799Z,41.97
2022-11-29T18:34:38.127Z,43.37
2022-11-29T18:37:04.823Z,43.27
2022-11-29T18:39:31.723Z,50.10
2022-11-29T18:41:58.557Z,51.77
2022-11-29T18:44:29.406Z,50.53
2022-11-29T18:46:57.500Z,54.37
2022-11-29T18:49:24.198Z,53.03
2022-11-29T18:51:51.363Z,47.27
2022-11-29T18:54:19.957Z,49.00
2022-11-29T18:56:46.684Z,49.57
2022-11-29T18:59:16.787Z,54.50
2022-11-29T19:01:45.265Z,49.50
2022-11-29T19:04:18.555Z,55.77
2022-11-29T19:06:47.398Z,55.80
2022-11-29T19:09:21.184Z,51.00
2022-11-29T19:11:51.607Z,52.33
2022-11-29T19:14:19.958Z,55.37
2022-11-29T19:16:48.561Z,52.43
2022-11-29T19:19:15.608Z,62.07
2022-11-29T19:21:42.500Z,55.50
2022-11-29T19:24:18.575Z,61.97
2022-11-29T19:26:47.178Z,61.87
2022-11-29T19:29:14.673Z,66.43
2022-11-29T19:31:42.513Z,55.10
2022-11-29T19:34:09.375Z,72.70
2022-11-29T19:36:44.396Z,60.73
2022-11-29T19:39:13.747Z,57.60
2022-11-29T19:41:45.513Z,51.93
2022-11-29T19:44:17.482Z,51.23
2022-11-29T19:46:47.057Z,59.17
2022-11-29T19:49:14.122Z,54.57
2022-11-29T19:51:40.937Z,60.07
2022-11-29T19:54:09.584Z,55.70
2022-11-29T19:56:36.673Z,58.27
2022-11-29T19:59:03.635Z,59.53
2022-11-29T20:01:39.655Z,54.27
2022-11-29T20:04:08.385Z,71.20
2022-11-29T20:06:35.436Z,64.70
2022-11-29T20:09:02.374Z,55.37
2022-11-29T20:11:29.120Z,55.00
2022-11-29T20:14:00.723Z,59.37
2022-11-29T20:16:29.226Z,68.57
2022-11-29T20:18:57.061Z,54.30
2022-11-29T20:21:27.520Z,64.77
2022-11-29T20:23:59.421Z,61.30
2022-11-29T20:26:27.884Z,67.30
2022-11-29T20:28:54.789Z,68.50
2022-11-29T20:31:23.019Z,56.60
2022-11-29T20:33:51.445Z,64.73
2022-11-29T20:36:36.111Z,68.27
2022-11-29T20:39:05.520Z,65.07
2022-11-29T20:41:40.618Z,64.93
2022-11-29T20:44:13.397Z,68.10
2022-11-29T20:46:41.450Z,69.13
2022-11-29T20:49:10.143Z,70.40
2022-11-29T20:51:55.523Z,61.63
2022-11-29T20:54:22.181Z,61.90
2022-11-29T20:56:48.832Z,66.53
2022-11-29T20:59:15.742Z,68.40
2022-11-29T21:01:42.813Z,66.90
2022-11-29T21:04:09.550Z,60.73
2022-11-29T21:06:39.553Z,74.27
2022-11-29T21:09:06.900Z,64.70
2022-11-29T21:11:35.420Z,74.10
2022-11-29T21:14:04.435Z,79.87
2022-11-29T21:16:32.031Z,76.00
2022-11-29T21:19:01.853Z,71.60
2022-11-29T21:21:31.429Z,75.00
2022-11-29T21:24:22.610Z,63.30
2022-11-29T21:26:52.648Z,71.87
2022-11-29T21:29:21.864Z,62.00
2022-11-29T21:31:51.290Z,61.67
2022-11-29T21:34:19.255Z,68.73
2022-11-29T21:36:52.413Z,66.27
2022-11-29T21:39:20.700Z,75.33
2022-11-29T21:41:47.354Z,67.87
2022-11-29T21:44:18.401Z,66.07
2022-11-29T21:46:45.394Z,93.50
2022-11-29T21:49:12.103Z,72.03
2022-11-29T21:51:38.978Z,73.70
2022-11-29T21:54:05.649Z,77.50
2022-11-29T21:56:32.349Z,70.33
2022-11-29T21:58:59.018Z,76.77
2022-11-29T22:01:27.389Z,73.90
2022-11-29T22:03:55.201Z,70.97
2022-11-29T22:06:24.154Z,70.93
2022-11-29T22:08:50.929Z,76.10
2022-11-29T22:11:30.623Z,76.27
2022-11-29T22:14:15.622Z,71.20
2022-11-29T22:16:59.362Z,75.00
2022-11-29T22:19:28.365Z,78.00
2022-11-29T22:21:57.344Z,73.80
2022-11-29T22:24:26.272Z,72.23
2022-11-29T22:26:53.790Z,80.80
2022-11-29T22:29:20.565Z,79.90
2022-11-29T22:31:49.289Z,81.23
2022-11-29T22:34:16.498Z,72.67
2022-11-29T22:36:43.392Z,73.17
2022-11-29T22:39:10.229Z,80.87
2022-11-29T22:41:38.139Z,77.57
2022-11-29T22:44:05.753Z,68.67
2022-11-29T22:46:32.551Z,77.73
2022-11-29T22:49:00.585Z,73.57
2022-11-29T22:51:35.348Z,69.43
2022-11-29T22:54:15.166Z,74.93
2022-11-29T22:56:43.061Z,69.80
2022-11-29T22:59:09.968Z,75.43
2022-11-29T23:01:39.101Z,90.47
2022-11-29T23:04:08.048Z,76.23
2022-11-29T23:06:37.378Z,79.27
2022-11-29T23:09:15.915Z,83.80
2022-11-29T23:11:44.376Z,80.10
2022-11-29T23:14:11.524Z,77.07
2022-11-29T23:16:38.610Z,76.70
2022-11-29T23:19:05.406Z,82.70
2022-11-29T23:21:37.858Z,85.73
2022-11-29T23:24:05.051Z,74.80
2022-11-29T23:26:36.422Z,79.70
2022-11-29T23:29:05.510Z,78.17
2022-11-29T23:31:32.812Z,75.90
2022-11-29T23:33:59.495Z,69.60
2022-11-29T23:36:26.110Z,81.23
2022-11-29T23:38:52.785Z,90.43
2022-11-29T23:41:19.686Z,84.83
2022-11-29T23:43:46.510Z,85.17
